createdAt,value
2022-12-31T00:01:55.540Z,15.80
2022-12-31T00:04:22.583Z,15.80
2022-12-31T00:06:49.462Z,15.80
2022-12-31T00:09:16.310Z,15.80
2022-12-31T00:11:43.206Z,15.80
2022-12-31T00:14:10.201Z,15.80
2022-12-31T00:16:39.736Z,15.70
2022-12-31T00:19:09.171Z,15.70
2022-12-31T00:21:36.970Z,15.70
2022-12-31T00:24:05.521Z,15.70
2022-12-31T00:26:34.039Z,15.70
2022-12-31T00:29:01.970Z,15.70
2022-12-31T00:31:31.232Z,15.70
2022-12-31T00:33:59.820Z,15.70
2022-12-31T00:36:33.497Z,15.70
2022-12-31T00:39:01.817Z,15.70
2022-12-31T00:41:29.315Z,15.70
2022-12-31T00:43:56.274Z,15.70
2022-12-31T00:46:23.738Z,15.70
2022-12-31T00:48:51.013Z,15.70
2022-12-31T00:51:20.897Z,15.70
2022-12-31T00:53:48.108Z,15.70
2022-12-31T00:56:17.461Z,15.80
2022-12-31T00:58:44.697Z,15.80
2022-12-31T01:01:14.853Z,15.80
2022-12-31T01:03:42.002Z,15.80
2022-12-31T01:06:09.465Z,15.80
2022-12-31T01:08:37.208Z,15.80
2022-12-31T01:11:19.589Z,15.80
2022-12-31T01:13:51.680Z,15.80
2022-12-31T01:16:21.249Z,15.80
2022-12-31T01:18:48.316Z,15.70
2022-12-31T01:21:15.851Z,15.70
2022-12-31T01:23:42.878Z,15.70
2022-12-31T01:26:12.335Z,15.70
2022-12-31T01:28:39.965Z,15.70
2022-12-31T01:31:12.591Z,15.70
2022-12-31T01:33:40.274Z,15.70
2022-12-31T01:36:25.070Z,15.70
2022-12-31T01:38:53.192Z,15.70
2022-12-31T01:41:22.377Z,15.70
2022-12-31T01:43:50.788Z,15.70
2022-12-31T01:46:41.582Z,15.70
2022-12-31T01:49:11.258Z,15.70
2022-12-31T01:51:38.821Z,15.80
2022-12-31T01:54:10.284Z,15.70
2022-12-31T01:56:39.812Z,15.70
2022-12-31T01:59:10.295Z,15.70
2022-12-31T02:01:38.949Z,15.60
2022-12-31T02:04:09.709Z,15.60
2022-12-31T02:06:48.945Z,15.60
2022-12-31T02:09:16.250Z,15.60
2022-12-31T02:11:43.191Z,15.50
2022-12-31T02:14:12.722Z,15.50
2022-12-31T02:16:42.399Z,15.50
2022-12-31T02:19:30.431Z,15.50
2022-12-31T02:22:09.314Z,15.50
2022-12-31T02:24:58.244Z,15.50
2022-12-31T02:28:08.996Z,15.40
2022-12-31T02:30:37.352Z,15.50
2022-12-31T02:33:13.320Z,15.40
2022-12-31T02:35:51.702Z,15.40
2022-12-31T02:38:33.076Z,15.40
2022-12-31T02:41:00.857Z,15.40
2022-12-31T02:43:28.203Z,15.40
2022-12-31T02:46:14.324Z,15.30
2022-12-31T02:48:56.375Z,15.30
2022-12-31T02:51:54.490Z,15.30
2022-12-31T02:54:51.379Z,15.20
2022-12-31T02:57:31.454Z,15.30
2022-12-31T03:00:22.171Z,15.30
2022-12-31T03:02:53.847Z,15.20
2022-12-31T03:05:24.436Z,15.20
2022-12-31T03:07:51.644Z,15.20
2022-12-31T03:10:18.565Z,15.20
2022-12-31T03:12:46.036Z,15.20
2022-12-31T03:15:20.543Z,15.10
2022-12-31T03:17:59.592Z,15.10
2022-12-31T03:20:59.104Z,15.10
2022-12-31T03:23:42.229Z,15.10
2022-12-31T03:26:11.890Z,15.10
2022-12-31T03:28:40.972Z,15.10
2022-12-31T03:31:08.327Z,15.10
2022-12-31T03:33:41.029Z,15.10
2022-12-31T03:36:10.527Z,15.00
2022-12-31T03:38:37.471Z,15.00
2022-12-31T03:41:04.440Z,15.00
2022-12-31T03:43:31.346Z,15.00
2022-12-31T03:46:01.718Z,14.90
2022-12-31T03:48:28.880Z,14.90
2022-12-31T03:50:55.933Z,14.90
2022-12-31T03:53:22.812Z,14.90
2022-12-31T03:55:53.417Z,14.80
2022-12-31T03:58:20.889Z,14.80
2022-12-31T04:00:47.853Z,14.80
2022-12-31T04:03:14.774Z,14.80
2022-12-31T04:05:41.820Z,14.80
2022-12-31T04:08:08.662Z,14.80
2022-12-31T04:10:38.057Z,14.80
2022-12-31T04:13:05.025Z,14.80
2022-12-31T04:15:32.328Z,14.90
2022-12-31T04:17:59.327Z,14.90
2022-12-31T04:20:26.272Z,14.90
2022-12-31T04:22:53.103Z,14.80
2022-12-31T04:25:20.070Z,14.90
2022-12-31T04:27:47.850Z,14.90
2022-12-31T04:30:15.095Z,14.90
2022-12-31T04:32:42.410Z,14.80
2022-12-31T04:35:10.756Z,14.80
2022-12-31T04:37:37.725Z,14.80
2022-12-31T04:40:06.865Z,14.80
2022-12-31T04:42:34.867Z,14.90
2022-12-31T04:45:01.748Z,14.90
2022-12-31T04:47:28.759Z,15.00
2022-12-31T04:49:55.641Z,15.00
2022-12-31T04:52:22.754Z,15.00
2022-12-31T04:54:49.666Z,14.90
2022-12-31T04:57:16.721Z,14.90
2022-12-31T04:59:43.583Z,14.80
2022-12-31T05:02:10.657Z,14.80
2022-12-31T05:04:37.585Z,14.80
2022-12-31T05:07:04.515Z,14.80
2022-12-31T05:09:31.474Z,14.80
2022-12-31T05:11:58.552Z,14.80
2022-12-31T05:14:25.848Z,14.80
2022-12-31T05:16:53.791Z,14.90
2022-12-31T05:19:20.870Z,14.90
2022-12-31T05:22:07.731Z,14.90
2022-12-31T05:24:34.617Z,15.00
2022-12-31T05:27:01.774Z,15.00
2022-12-31T05:29:28.684Z,15.00
2022-12-31T05:31:55.589Z,15.10
2022-12-31T05:34:22.480Z,15.10
2022-12-31T05:36:49.340Z,15.10
2022-12-31T05:39:16.260Z,15.10
2022-12-31T05:41:43.139Z,15.20
2022-12-31T05:44:10.910Z,15.10
2022-12-31T05:46:37.808Z,15.20
2022-12-31T05:49:04.978Z,15.20
2022-12-31T05:51:31.954Z,15.20
2022-12-31T05:53:58.801Z,15.30
2022-12-31T05:56:25.736Z,15.30
2022-12-31T05:58:52.657Z,15.30
2022-12-31T06:01:19.628Z,15.30
2022-12-31T06:03:46.920Z,15.30
2022-12-31T06:06:14.199Z,15.30
2022-12-31T06:08:44.207Z,15.40
2022-12-31T06:11:11.082Z,15.40
2022-12-31T06:13:37.937Z,15.40
2022-12-31T06:16:09.369Z,15.40
2022-12-31T06:18:36.646Z,15.50
2022-12-31T06:21:04.138Z,15.40
2022-12-31T06:23:31.745Z,15.40
2022-12-31T06:26:17.640Z,15.50
2022-12-31T06:28:44.470Z,15.40
2022-12-31T06:31:13.509Z,15.40
2022-12-31T06:33:40.717Z,15.40
2022-12-31T06:36:11.500Z,15.40
2022-12-31T06:38:40.719Z,15.40
2022-12-31T06:41:10.278Z,15.50
2022-12-31T06:43:38.682Z,15.50
2022-12-31T06:46:07.711Z,15.50
2022-12-31T06:48:35.168Z,15.50
2022-12-31T06:51:16.609Z,15.60
2022-12-31T06:53:45.274Z,15.60
2022-12-31T06:56:31.337Z,15.70
2022-12-31T06:59:00.683Z,15.70
2022-12-31T07:01:40.625Z,15.80
2022-12-31T07:04:33.774Z,15.80
2022-12-31T07:07:34.275Z,15.90
2022-12-31T07:10:15.168Z,15.90
2022-12-31T07:13:01.758Z,16.00
2022-12-31T07:15:37.494Z,16.10
2022-12-31T07:18:28.732Z,16.10
2022-12-31T07:20:56.281Z,16.20
2022-12-31T07:23:23.407Z,16.20
2022-12-31T07:26:10.902Z,16.30
2022-12-31T07:29:08.477Z,16.30
2022-12-31T07:31:55.551Z,16.30
2022-12-31T07:34:50.304Z,16.40
2022-12-31T07:37:56.049Z,16.40
2022-12-31T07:40:25.852Z,16.40
2022-12-31T07:43:21.239Z,16.40
2022-12-31T07:46:11.563Z,16.50
2022-12-31T07:48:38.627Z,16.50
2022-12-31T07:51:06.167Z,16.50
2022-12-31T07:53:33.206Z,16.60
2022-12-31T07:56:02.763Z,16.60
2022-12-31T07:58:59.805Z,16.60
2022-12-31T08:01:41.586Z,16.60
2022-12-31T08:04:47.192Z,16.70
2022-12-31T08:07:25.421Z,16.70
2022-12-31T08:10:04.736Z,16.70
2022-12-31T08:12:35.554Z,16.70
2022-12-31T08:15:02.822Z,16.70
2022-12-31T08:17:29.805Z,16.70
2022-12-31T08:19:56.949Z,16.70
2022-12-31T08:22:52.731Z,16.60
2022-12-31T08:25:19.799Z,16.60
2022-12-31T08:28:01.714Z,16.60
2022-12-31T08:30:58.997Z,16.50
2022-12-31T08:33:25.860Z,16.50
2022-12-31T08:36:01.484Z,16.50
2022-12-31T08:38:34.216Z,16.40
2022-12-31T08:41:31.100Z,16.40
2022-12-31T08:44:03.751Z,16.40
2022-12-31T08:46:57.784Z,16.40
2022-12-31T08:49:28.085Z,16.40
2022-12-31T08:51:55.310Z,16.40
2022-12-31T08:54:22.503Z,16.40
2022-12-31T08:56:57.281Z,16.40
2022-12-31T08:59:26.888Z,16.40
2022-12-31T09:02:19.775Z,16.40
2022-12-31T09:04:59.734Z,16.40
2022-12-31T09:07:46.575Z,16.40
2022-12-31T09:10:30.171Z,16.40
2022-12-31T09:13:20.517Z,16.40
2022-12-31T09:15:52.358Z,16.40
2022-12-31T09:18:19.449Z,16.40
2022-12-31T09:20:46.668Z,16.40
2022-12-31T09:23:14.110Z,16.50
2022-12-31T09:26:06.891Z,16.50
2022-12-31T09:28:48.633Z,16.50
2022-12-31T09:31:30.693Z,16.60
2022-12-31T09:34:12.244Z,16.60
2022-12-31T09:36:45.028Z,16.70
2022-12-31T09:39:20.935Z,16.70
2022-12-31T09:42:25.344Z,16.80
2022-12-31T09:45:07.628Z,16.80
2022-12-31T09:48:02.191Z,16.90
2022-12-31T09:50:41.148Z,16.90
2022-12-31T09:53:11.121Z,16.90
2022-12-31T09:55:48.531Z,17.00
2022-12-31T09:58:43.114Z,17.00
2022-12-31T10:01:36.488Z,17.10
2022-12-31T10:04:41.190Z,17.20
2022-12-31T10:07:44.904Z,17.30
2022-12-31T10:10:30.295Z,17.40
2022-12-31T10:13:25.285Z,17.50
2022-12-31T10:16:14.136Z,17.50
2022-12-31T10:19:02.286Z,17.50
2022-12-31T10:22:10.639Z,17.50
2022-12-31T10:25:06.789Z,17.50
2022-12-31T10:27:36.461Z,17.60
2022-12-31T10:30:24.159Z,17.60
2022-12-31T10:33:06.029Z,17.60
2022-12-31T10:35:41.859Z,17.60
2022-12-31T10:38:20.514Z,17.70
2022-12-31T10:41:02.762Z,17.70
2022-12-31T10:43:51.265Z,17.70
2022-12-31T10:46:49.933Z,17.70
2022-12-31T10:49:28.023Z,17.70
2022-12-31T10:52:12.876Z,17.70
2022-12-31T10:54:51.483Z,17.80
2022-12-31T10:57:36.898Z,17.80
2022-12-31T11:00:23.042Z,17.90
2022-12-31T11:03:29.306Z,17.90
2022-12-31T11:06:15.280Z,17.90
2022-12-31T11:09:09.581Z,17.80
2022-12-31T11:11:53.081Z,17.80
2022-12-31T11:14:47.580Z,17.80
2022-12-31T11:17:45.229Z,17.70
2022-12-31T11:20:41.857Z,17.70
2022-12-31T11:23:20.800Z,17.60
2022-12-31T11:26:02.298Z,17.70
2022-12-31T11:29:06.032Z,17.70
2022-12-31T11:31:50.088Z,17.70
2022-12-31T11:34:39.434Z,17.70
2022-12-31T11:37:36.479Z,17.80
2022-12-31T11:40:12.259Z,17.80
2022-12-31T11:42:50.909Z,17.90
2022-12-31T11:45:38.923Z,18.00
2022-12-31T11:48:30.948Z,18.00
2022-12-31T11:51:04.512Z,18.10
2022-12-31T11:54:07.116Z,18.10
2022-12-31T11:56:38.646Z,18.10
2022-12-31T11:59:18.616Z,18.10
2022-12-31T12:01:56.623Z,18.10
2022-12-31T12:04:24.537Z,18.10
2022-12-31T12:06:52.502Z,18.00
2022-12-31T12:09:28.619Z,18.10
2022-12-31T12:12:04.543Z,18.10
2022-12-31T12:14:37.870Z,18.00
2022-12-31T12:17:10.521Z,18.00
2022-12-31T12:19:47.066Z,18.00
2022-12-31T12:22:21.716Z,18.00
2022-12-31T12:24:58.309Z,18.00
2022-12-31T12:27:28.781Z,17.90
2022-12-31T12:29:55.867Z,17.90
2022-12-31T12:32:25.831Z,17.90
2022-12-31T12:34:53.219Z,17.90
2022-12-31T12:37:33.173Z,17.90
2022-12-31T12:40:03.136Z,17.90
2022-12-31T12:42:30.579Z,17.90
2022-12-31T12:45:16.118Z,17.90
2022-12-31T12:47:44.517Z,17.90
2022-12-31T12:50:18.743Z,17.90
2022-12-31T12:53:08.728Z,17.90
2022-12-31T12:55:45.593Z,17.90
2022-12-31T12:58:37.276Z,17.90
2022-12-31T13:01:25.756Z,17.90
2022-12-31T13:04:35.404Z,17.90
2022-12-31T13:07:17.034Z,17.90
2022-12-31T13:09:54.110Z,17.90
2022-12-31T13:12:25.452Z,17.90
2022-12-31T13:15:22.670Z,17.90
2022-12-31T13:18:02.098Z,17.90
2022-12-31T13:20:41.224Z,17.90
2022-12-31T13:23:26.666Z,17.90
2022-12-31T13:26:01.157Z,17.80
2022-12-31T13:28:28.691Z,17.80
2022-12-31T13:31:06.983Z,17.80
2022-12-31T13:33:40.977Z,17.90
2022-12-31T13:36:13.673Z,17.80
2022-12-31T13:38:53.344Z,17.80
2022-12-31T13:41:29.254Z,17.80
2022-12-31T13:44:09.255Z,17.80
2022-12-31T13:46:39.166Z,17.80
2022-12-31T13:49:25.561Z,17.80
2022-12-31T13:52:21.817Z,17.80
2022-12-31T13:55:23.865Z,17.80
2022-12-31T13:58:01.667Z,17.80
2022-12-31T14:00:42.330Z,17.80
2022-12-31T14:03:16.765Z,17.80
2022-12-31T14:05:52.320Z,17.80
2022-12-31T14:08:19.310Z,17.80
2022-12-31T14:11:20.747Z,17.80
2022-12-31T14:13:59.704Z,17.80
2022-12-31T14:16:40.877Z,17.80
2022-12-31T14:19:19.798Z,17.80
2022-12-31T14:22:09.447Z,17.80
2022-12-31T14:24:39.353Z,17.80
2022-12-31T14:27:13.729Z,17.80
2022-12-31T14:29:53.605Z,17.70
2022-12-31T14:32:38.839Z,17.70
2022-12-31T14:35:22.753Z,17.70
2022-12-31T14:37:54.647Z,17.70
2022-12-31T14:40:44.318Z,17.70
2022-12-31T14:43:23.303Z,17.70
2022-12-31T14:46:18.651Z,17.70
2022-12-31T14:49:22.783Z,17.80
2022-12-31T14:51:49.653Z,17.70
2022-12-31T14:54:29.037Z,17.70
2022-12-31T14:56:56.160Z,17.70
2022-12-31T14:59:35.645Z,17.70
2022-12-31T15:02:33.115Z,17.70
2022-12-31T15:05:22.573Z,17.70
2022-12-31T15:07:49.497Z,17.70
2022-12-31T15:10:25.515Z,17.70
2022-12-31T15:13:36.545Z,17.70
2022-12-31T15:16:12.496Z,17.80
2022-12-31T15:19:11.397Z,17.80
2022-12-31T15:21:47.275Z,17.80
2022-12-31T15:24:22.717Z,17.90
2022-12-31T15:26:54.828Z,17.90
2022-12-31T15:29:31.885Z,17.90
2022-12-31T15:32:01.903Z,17.90
2022-12-31T15:34:34.937Z,18.00
2022-12-31T15:37:26.230Z,18.00
2022-12-31T15:40:17.856Z,18.00
2022-12-31T15:43:10.094Z,18.00
2022-12-31T15:45:38.868Z,18.00
2022-12-31T15:48:26.596Z,18.00
2022-12-31T15:50:57.962Z,18.00
2022-12-31T15:53:39.492Z,18.00
2022-12-31T15:56:12.210Z,18.00
2022-12-31T15:58:39.372Z,18.00
2022-12-31T16:01:18.916Z,18.00
2022-12-31T16:03:49.930Z,18.00
2022-12-31T16:06:18.167Z,18.10
2022-12-31T16:08:47.833Z,18.10
2022-12-31T16:11:15.737Z,18.10
2022-12-31T16:13:47.145Z,18.10
2022-12-31T16:16:23.401Z,18.10
2022-12-31T16:18:50.671Z,18.10
2022-12-31T16:21:26.582Z,18.10
2022-12-31T16:23:55.690Z,18.10
2022-12-31T16:26:25.638Z,18.00
2022-12-31T16:28:52.670Z,18.10
2022-12-31T16:31:20.683Z,18.10
2022-12-31T16:33:48.014Z,18.10
2022-12-31T16:36:20.930Z,18.10
2022-12-31T16:38:48.574Z,18.10
2022-12-31T16:41:20.879Z,18.00
2022-12-31T16:43:49.792Z,18.10
2022-12-31T16:46:27.033Z,18.10
2022-12-31T16:49:23.979Z,18.10
2022-12-31T16:51:51.499Z,18.10
2022-12-31T16:54:29.137Z,18.10
2022-12-31T16:56:57.660Z,18.10
2022-12-31T16:59:35.435Z,18.10
2022-12-31T17:02:07.451Z,18.10
2022-12-31T17:04:34.666Z,18.10
2022-12-31T17:07:41.006Z,18.10
2022-12-31T17:10:07.917Z,18.10
2022-12-31T17:13:01.085Z,18.00
2022-12-31T17:15:38.360Z,18.10
2022-12-31T17:18:06.160Z,18.00
2022-12-31T17:20:34.441Z,18.00
2022-12-31T17:23:06.648Z,18.00
2022-12-31T17:25:36.779Z,18.00
2022-12-31T17:28:19.670Z,18.00
2022-12-31T17:30:46.913Z,18.00
2022-12-31T17:33:20.076Z,18.00
2022-12-31T17:35:47.136Z,18.00
2022-12-31T17:38:26.199Z,18.00
2022-12-31T17:40:55.746Z,18.00
2022-12-31T17:43:24.632Z,18.00
2022-12-31T17:45:54.693Z,18.00
2022-12-31T17:48:24.692Z,18.00
2022-12-31T17:50:56.704Z,18.00
2022-12-31T17:53:23.966Z,18.00
2022-12-31T17:55:56.766Z,18.00
2022-12-31T17:58:29.860Z,18.00
2022-12-31T18:00:58.218Z,18.00
2022-12-31T18:03:25.356Z,18.00
2022-12-31T18:05:52.652Z,18.00
2022-12-31T18:08:19.591Z,18.00
2022-12-31T18:10:46.779Z,18.00
2022-12-31T18:13:22.837Z,18.00
2022-12-31T18:15:50.176Z,18.00
2022-12-31T18:18:26.235Z,18.00
2022-12-31T18:21:05.257Z,18.00
2022-12-31T18:23:39.023Z,18.00
2022-12-31T18:26:06.275Z,18.00
2022-12-31T18:28:33.197Z,18.00
2022-12-31T18:31:00.148Z,18.00
2022-12-31T18:33:28.644Z,18.00
2022-12-31T18:36:08.893Z,18.00
2022-12-31T18:38:36.361Z,18.00
2022-12-31T18:41:03.681Z,17.90
2022-12-31T18:43:30.733Z,17.90
2022-12-31T18:45:57.734Z,17.90
2022-12-31T18:48:24.825Z,17.90
2022-12-31T18:50:51.780Z,18.00
2022-12-31T18:53:21.870Z,18.00
2022-12-31T18:55:52.079Z,18.00
2022-12-31T18:58:19.438Z,17.90
2022-12-31T19:00:48.106Z,17.90
2022-12-31T19:03:21.184Z,17.90
2022-12-31T19:05:50.648Z,17.90
2022-12-31T19:08:22.071Z,17.90
2022-12-31T19:10:51.198Z,17.90
2022-12-31T19:13:19.936Z,17.90
2022-12-31T19:15:49.865Z,17.90
2022-12-31T19:18:17.033Z,17.90
2022-12-31T19:20:43.951Z,17.90
2022-12-31T19:23:17.918Z,17.90
2022-12-31T19:25:46.576Z,17.90
2022-12-31T19:28:22.235Z,17.90
2022-12-31T19:30:49.785Z,17.90
2022-12-31T19:33:17.467Z,17.90
2022-12-31T19:35:45.606Z,17.90
2022-12-31T19:38:21.210Z,17.80
2022-12-31T19:40:49.157Z,17.80
2022-12-31T19:43:18.194Z,17.80
2022-12-31T19:45:45.910Z,17.80
2022-12-31T19:48:14.768Z,17.80
2022-12-31T19:50:43.752Z,17.80
2022-12-31T19:53:13.379Z,17.80
2022-12-31T19:55:40.718Z,17.80
2022-12-31T19:58:08.310Z,17.80
2022-12-31T20:00:35.398Z,17.70
2022-12-31T20:03:02.435Z,17.70
2022-12-31T20:05:29.384Z,17.70
2022-12-31T20:07:56.227Z,17.70
2022-12-31T20:10:23.164Z,17.70
2022-12-31T20:12:50.066Z,17.70
2022-12-31T20:15:17.051Z,17.80
2022-12-31T20:17:43.964Z,17.70
2022-12-31T20:20:11.204Z,17.70
2022-12-31T20:22:38.222Z,17.80
2022-12-31T20:25:06.071Z,17.80
2022-12-31T20:27:33.568Z,17.80
2022-12-31T20:30:00.663Z,17.80
2022-12-31T20:32:27.574Z,17.80
2022-12-31T20:34:54.432Z,17.80
2022-12-31T20:37:21.319Z,17.80
2022-12-31T20:39:48.260Z,17.80
2022-12-31T20:42:15.126Z,17.80
2022-12-31T20:44:42.027Z,17.80
2022-12-31T20:47:09.065Z,17.80
2022-12-31T20:50:09.558Z,17.90
2022-12-31T20:52:22.896Z,17.90
2022-12-31T20:54:49.833Z,17.90
2022-12-31T20:57:16.711Z,17.90
2022-12-31T20:59:43.596Z,17.90
2022-12-31T21:02:26.528Z,17.80
2022-12-31T21:05:01.733Z,17.90
2022-12-31T21:07:28.728Z,17.90
2022-12-31T21:09:55.543Z,17.90
2022-12-31T21:12:40.860Z,17.90
2022-12-31T21:15:08.368Z,17.90
2022-12-31T21:17:35.241Z,17.90
2022-12-31T21:20:02.175Z,17.90
2022-12-31T21:22:30.104Z,17.90
2022-12-31T21:24:57.002Z,17.90
2022-12-31T21:27:23.905Z,17.90
2022-12-31T21:30:17.619Z,17.90
2022-12-31T21:32:37.652Z,17.90
2022-12-31T21:35:41.185Z,17.90
2022-12-31T21:37:58.435Z,17.90
2022-12-31T21:40:27.565Z,17.90
2022-12-31T21:42:54.407Z,17.90
2022-12-31T21:45:21.426Z,17.90
2022-12-31T21:48:06.667Z,17.90
2022-12-31T21:50:34.071Z,17.90
2022-12-31T21:53:01.051Z,17.80
2022-12-31T21:55:46.667Z,17.90
2022-12-31T21:58:25.834Z,17.80
2022-12-31T22:01:32.894Z,17.80
2022-12-31T22:03:59.886Z,17.80
2022-12-31T22:06:26.973Z,17.90
2022-12-31T22:08:55.766Z,17.90
2022-12-31T22:11:25.987Z,17.80
2022-12-31T22:13:53.835Z,17.90
2022-12-31T22:16:21.397Z,17.90
2022-12-31T22:18:49.494Z,17.90
2022-12-31T22:21:22.419Z,17.90
2022-12-31T22:23:58.642Z,17.90
2022-12-31T22:26:27.878Z,17.90
2022-12-31T22:28:59.135Z,17.90
2022-12-31T22:31:29.884Z,17.90
2022-12-31T22:33:58.251Z,17.90
2022-12-31T22:36:25.831Z,17.90
2022-12-31T22:38:57.314Z,17.90
2022-12-31T22:41:26.351Z,17.90
2022-12-31T22:44:02.688Z,17.90
2022-12-31T22:46:31.236Z,17.90
2022-12-31T22:48:59.878Z,17.90
2022-12-31T22:51:56.452Z,17.90
2022-12-31T22:54:14.888Z,17.90
2022-12-31T22:56:41.765Z,17.90
2022-12-31T22:59:09.342Z,17.90
2022-12-31T23:01:36.887Z,17.90
2022-12-31T23:04:04.703Z,17.90
2022-12-31T23:06:31.756Z,17.80
2022-12-31T23:09:17.654Z,17.80
2022-12-31T23:11:44.625Z,17.80
2022-12-31T23:14:35.823Z,17.80
2022-12-31T23:17:29.883Z,17.80
2022-12-31T23:20:18.070Z,17.80
2022-12-31T23:23:04.107Z,17.80
2022-12-31T23:25:51.262Z,17.80
2022-12-31T23:28:23.567Z,17.80
2022-12-31T23:30:51.562Z,17.80
2022-12-31T23:33:24.762Z,17.80
2022-12-31T23:36:05.181Z,17.80
2022-12-31T23:38:32.077Z,17.80
2022-12-31T23:40:58.996Z,17.80
2022-12-31T23:43:25.892Z,17.80
2022-12-31T23:45:53.181Z,17.80
2022-12-31T23:48:20.193Z,17.80
2022-12-31T23:50:53.497Z,17.80
2022-12-31T23:53:21.628Z,17.80
2022-12-31T23:55:48.481Z,17.80
2022-12-31T23:58:16.365Z,17.80
